| time (UTC) | temp F | wind direction | speed knots | gust knots | rain 1hr in | rain 24hr in | rain mn in | humidity % | barometer mb |
| 20260510203059 | 60 | 249 | 2.6 | 7.8 | 0.00 | 0.00 | 0.00 | 87 | 1023.4 |
| 20260510201630 | 61 | 290 | 3.5 | 8.7 | 0.00 | 0.00 | 0.00 | 84 | 1023.4 |
| 20260510200059 | 60 | 307 | 1.7 | 7.0 | 0.00 | 0.00 | 0.00 | 82 | 1023.4 |
| 20260510194604 | 59 | 291 | 3.5 | 7.8 | 0.00 | 0.00 | 0.00 | 85 | 1023.3 |
| 20260510193056 | 59 | 299 | 2.6 | 10.4 | 0.00 | 0.00 | 0.00 | 88 | 1023.2 |
| 20260510191605 | 62 | 305 | 0.9 | 6.1 | 0.00 | 0.00 | 0.00 | 82 | 1023.0 |
| 20260510190058 | 61 | 297 | 4.3 | 9.6 | 0.00 | 0.00 | 0.00 | 84 | 1022.9 |
| 20260510184550 | 61 | 298 | 1.7 | 6.1 | 0.00 | 0.00 | 0.00 | 86 | 1022.7 |
| 20260510183048 | 59 | 284 | 0.9 | 4.3 | 0.00 | 0.00 | 0.00 | 85 | 1022.4 |
| 20260510181554 | 59 | 211 | 1.7 | 7.8 | 0.00 | 0.00 | 0.00 | 87 | 1022.2 |
| 20260510180047 | 58 | 247 | 0.0 | 2.6 | 0.00 | 0.00 | 0.00 | 87 | 1022.1 |
| 20260510174543 | 58 | 247 | 0.9 | 3.5 | 0.00 | 0.00 | 0.00 | 89 | 1021.9 |
| 20260510173040 | 57 | 226 | 0.9 | 5.2 | 0.00 | 0.00 | 0.00 | 90 | 1022.1 |
| 20260510171544 | 56 | 224 | 0.9 | 7.0 | 0.00 | 0.00 | 0.00 | 92 | 1022.2 |
| 20260510170035 | 56 | 296 | 2.6 | 7.0 | 0.00 | 0.00 | 0.00 | 94 | 1022.1 |
| 20260510164530 | 56 | 207 | 0.0 | 2.6 | 0.00 | 0.00 | 0.00 | 97 | 1021.8 |
| 20260510163028 | 55 | 233 | 1.7 | 5.2 | 0.00 | 0.00 | 0.00 | 98 | 1021.7 |
| 20260510161525 | 54 | 276 | 0.9 | 3.5 | 0.00 | 0.00 | 0.00 | 99 | 1021.8 |
| 20260510160023 | 53 | 181 | 0.0 | 0.0 | 0.00 | 0.00 | 0.00 | 100 | 1021.6 |
| 20260510154521 | 53 | 182 | 0.0 | 2.6 | 0.00 | 0.00 | 0.00 | 100 | 1021.5 |
| 20260510153020 | 52 | 205 | 0.9 | 3.5 | 0.00 | 0.00 | 0.00 | 100 | 1021.7 |
| 20260510151515 | 52 | 220 | 0.0 | 0.0 | 0.00 | 0.00 | 0.00 | 100 | 1021.1 |
| 20260510150014 | 51 | 220 | 0.9 | 2.6 | 0.00 | 0.00 | 0.00 | 100 | 1021.3 |
| 20260510144513 | 50 | 221 | 0.0 | 1.7 | 0.00 | 0.00 | 0.00 | 100 | 1021.1 |
| 20260510143008 | 50 | 221 | 0.0 | 0.9 | 0.00 | 0.00 | 0.00 | 100 | 1020.8 |
| 20260510141509 | 50 | 221 | 0.0 | 1.7 | 0.00 | 0.00 | 0.00 | 100 | 1021.0 |
| 20260510140006 | 49 | 221 | 0.0 | 0.0 | 0.00 | 0.00 | 0.00 | 100 | 1020.7 |
| 20260510134505 | 49 | 221 | 0.0 | 0.0 | 0.00 | 0.00 | 0.00 | 100 | 1020.8 |
| 20260510133010 | 49 | 221 | 0.0 | 0.0 | 0.00 | 0.00 | 0.00 | 100 | 1020.8 |
| 20260510131503 | 49 | 221 | 0.0 | 0.0 | 0.00 | 0.00 | 0.00 | 100 | 1020.9 |
| 20260510130003 | 49 | 221 | 0.0 | 0.0 | 0.00 | 0.00 | 0.00 | 100 | 1020.8 |
| 20260510124502 | 49 | 220 | 0.0 | 0.0 | 0.00 | 0.00 | 0.00 | 100 | 1020.7 |
| 20260510123101 | 49 | 220 | 0.0 | 0.0 | 0.00 | 0.00 | 0.00 | 100 | 1020.8 |
| 20260510121601 | 49 | 221 | 0.0 | 0.0 | 0.00 | 0.00 | 0.00 | 100 | 1020.7 |
| 20260510120059 | 50 | 220 | 0.0 | 0.0 | 0.00 | 0.00 | 0.00 | 100 | 1020.5 |
| 20260510114559 | 49 | 220 | 0.0 | 0.0 | 0.00 | 0.00 | 0.00 | 100 | 1020.7 |
| 20260510113103 | 49 | 220 | 0.0 | 0.0 | 0.00 | 0.00 | 0.00 | 100 | 1021.3 |
| 20260510111609 | 49 | 220 | 0.0 | 0.0 | 0.00 | 0.00 | 0.00 | 100 | 1021.2 |
| 20260510110054 | 48 | 220 | 0.0 | 0.0 | 0.00 | 0.00 | 0.00 | 100 | 1021.1 |
| 20260510104553 | 49 | 220 | 0.0 | 0.0 | 0.00 | 0.00 | 0.00 | 100 | 1020.9 |
| 20260510103052 | 49 | 220 | 0.0 | 0.0 | 0.00 | 0.00 | 0.00 | 100 | 1020.6 |
| 20260510101553 | 49 | 220 | 0.0 | 0.0 | 0.00 | 0.00 | 0.00 | 100 | 1020.7 |
| 20260510100053 | 49 | 231 | 0.0 | 0.0 | 0.00 | 0.00 | 0.00 | 100 | 1020.6 |
| 20260510094551 | 48 | 231 | 0.0 | 0.0 | 0.00 | 0.00 | 0.00 | 100 | 1021.0 |
| 20260510093101 | 48 | 231 | 0.0 | 0.0 | 0.00 | 0.00 | 0.00 | 100 | 1020.6 |
| 20260510091548 | 49 | 231 | 0.0 | 0.0 | 0.00 | 0.00 | 0.00 | 100 | 1020.5 |
| 20260510090055 | 48 | 231 | 0.0 | 0.0 | 0.00 | 0.00 | 0.00 | 100 | 1020.4 |
| 20260510084544 | 48 | 231 | 0.0 | 0.0 | 0.00 | 0.00 | 0.00 | 100 | 1020.5 |
| 20260510083050 | 48 | 231 | 0.0 | 0.0 | 0.00 | 0.00 | 0.00 | 100 | 1020.7 |
| 20260510081555 | 48 | 231 | 0.0 | 0.0 | 0.00 | 0.00 | 0.00 | 100 | 1020.7 |
| 20260510080046 | 49 | 231 | 0.0 | 0.0 | 0.00 | 0.00 | 0.00 | 100 | 1020.7 |
| 20260510074538 | 49 | 231 | 0.0 | 0.0 | 0.00 | 0.00 | 0.00 | 100 | 1020.3 |
| 20260510073035 | 49 | 231 | 0.0 | 1.7 | 0.00 | 0.00 | 0.00 | 100 | 1020.4 |
| 20260510071534 | 49 | 230 | 0.0 | 0.0 | 0.00 | 0.00 | 0.00 | 100 | 1020.2 |
| 20260510070032 | 50 | 230 | 0.0 | 0.9 | 0.00 | 0.00 | 0.00 | 99 | 1020.2 |
| 20260510064534 | 50 | 230 | 0.0 | 2.6 | 0.00 | 0.00 | 0.00 | 99 | 1020.3 |
| 20260510063031 | 51 | 284 | 0.0 | 1.7 | 0.00 | 0.00 | 0.00 | 98 | 1020.1 |
| 20260510061531 | 52 | 284 | 0.0 | 0.9 | 0.00 | 0.00 | 0.00 | 97 | 1020.1 |
| 20260510060029 | 53 | 284 | 0.0 | 3.5 | 0.00 | 0.00 | 0.00 | 96 | 1019.9 |
| 20260510054530 | 53 | 330 | 0.0 | 1.7 | 0.00 | 0.00 | 0.00 | 96 | 1020.1 |
| 20260510053028 | 53 | 334 | 1.7 | 5.2 | 0.00 | 0.00 | 0.00 | 96 | 1020.2 |
| 20260510051529 | 54 | 305 | 1.7 | 5.2 | 0.00 | 0.00 | 0.00 | 96 | 1020.1 |
| 20260510050028 | 54 | 312 | 0.9 | 6.1 | 0.00 | 0.00 | 0.00 | 95 | 1020.0 |
| 20260510044534 | 54 | 290 | 2.6 | 6.1 | 0.00 | 0.00 | 0.00 | 95 | 1019.9 |
| 20260510043028 | 55 | 307 | 1.7 | 5.2 | 0.00 | 0.00 | 0.00 | 95 | 1019.8 |
| 20260510041526 | 55 | 291 | 2.6 | 7.0 | 0.00 | 0.00 | 0.00 | 94 | 1019.5 |
| 20260510040027 | 56 | 298 | 1.7 | 6.1 | 0.00 | 0.00 | 0.00 | 93 | 1019.2 |
| 20260510034526 | 57 | 317 | 1.7 | 5.2 | 0.00 | 0.00 | 0.00 | 93 | 1018.9 |
| 20260510033026 | 59 | 213 | 0.0 | 1.7 | 0.00 | 0.00 | 0.00 | 91 | 1018.7 |
| 20260510031525 | 60 | 207 | 0.9 | 3.5 | 0.00 | 0.00 | 0.00 | 91 | 1018.5 |
| 20260510030034 | 60 | 319 | 0.9 | 3.5 | 0.00 | 0.00 | 0.00 | 89 | 1018.4 |
| 20260510024525 | 60 | 328 | 0.0 | 3.5 | 0.00 | 0.00 | 0.00 | 89 | 1018.4 |
| 20260510023023 | 61 | 346 | 0.0 | 2.6 | 0.00 | 0.00 | 0.00 | 88 | 1018.6 |
| 20260510021527 | 62 | 352 | 0.9 | 3.5 | 0.00 | 0.00 | 0.00 | 86 | 1018.4 |
| 20260510020023 | 62 | 321 | 0.9 | 3.5 | 0.00 | 0.00 | 0.00 | 87 | 1018.5 |
| 20260510014519 | 62 | 9 | 1.7 | 7.8 | 0.00 | 0.00 | 0.00 | 84 | 1018.6 |
| 20260510013018 | 63 | 310 | 3.5 | 6.1 | 0.00 | 0.00 | 0.00 | 84 | 1018.6 |
| 20260510011517 | 65 | 317 | 4.3 | 7.0 | 0.00 | 0.00 | 0.00 | 81 | 1018.7 |
| 20260510010017 | 67 | 4 | 3.5 | 7.8 | 0.00 | 0.00 | 0.00 | 80 | 1018.7 |
| 20260510004515 | 66 | 350 | 2.6 | 6.1 | 0.00 | 0.00 | 0.00 | 79 | 1018.7 |
| 20260510003023 | 67 | 322 | 1.7 | 7.0 | 0.00 | 0.00 | 0.00 | 78 | 1018.7 |
| 20260510001511 | 67 | 342 | 3.5 | 7.8 | 0.00 | 0.00 | 0.00 | 77 | 1018.7 |
| 20260510000012 | 68 | 342 | 2.6 | 7.0 | 0.00 | 0.00 | 0.00 | 76 | 1018.9 |
| 20260509234513 | 69 | 315 | 3.5 | 7.0 | 0.00 | 0.00 | 0.00 | 74 | 1019.1 |
| 20260509233011 | 70 | 11 | 1.7 | 7.8 | 0.00 | 0.00 | 0.00 | 74 | 1019.2 |
| 20260509231504 | 70 | 309 | 2.6 | 7.8 | 0.00 | 0.00 | 0.00 | 67 | 1019.4 |
| 20260509230001 | 69 | 13 | 3.5 | 7.0 | 0.00 | 0.00 | 0.00 | 68 | 1019.6 |
| 20260509224602 | 68 | 324 | 1.7 | 7.0 | 0.00 | 0.00 | 0.00 | 68 | 1019.8 |
| 20260509223059 | 69 | 299 | 5.2 | 7.8 | 0.00 | 0.00 | 0.00 | 66 | 1019.8 |
| 20260509221556 | 69 | 14 | 2.6 | 8.7 | 0.00 | 0.00 | 0.00 | 67 | 1020.1 |
| 20260509220051 | 68 | 308 | 2.6 | 7.8 | 0.00 | 0.00 | 0.00 | 69 | 1020.4 |
| 20260509214546 | 67 | 328 | 3.5 | 7.8 | 0.00 | 0.00 | 0.00 | 69 | 1020.2 |
| 20260509213048 | 67 | 332 | 2.6 | 7.0 | 0.00 | 0.00 | 0.00 | 72 | 1020.5 |
| 20260509211549 | 66 | 320 | 1.7 | 7.8 | 0.00 | 0.00 | 0.00 | 76 | 1020.8 |
| 20260509210039 | 67 | 329 | 3.5 | 7.8 | 0.00 | 0.00 | 0.00 | 74 | 1020.8 |
| 20260509204536 | 67 | 345 | 6.1 | 9.6 | 0.00 | 0.00 | 0.00 | 77 | 1021.2 |